Terminal Aerodrome Forecast
Issued by NWS

Home | Current Version | Previous Version | Text Only | Print | Product List | Glossary On
Versions: 1 2 3 4 5 6 7 8 9 10 11 12 13 14 15 16 17 18 19 20 21 22 23 24 25
861
FTUS44 KFWD 102100 AAA
TAFGKY
TAF AMD
KGKY 102100Z 1021/1118 21015KT P6SM SKC
     FM110100 20011KT P6SM SKC
     FM111100 24006KT P6SM SKC
     FM111500 32009KT P6SM SKC
     FM111700 36008KT P6SM SKC=

USA.gov is the U.S. government's official web portal to all federal, state and local government web resources and services.